createdAt,value
2023-04-10T00:01:08.353Z,9.25
2023-04-10T00:03:41.576Z,9.21
2023-04-10T00:06:13.917Z,9.18
2023-04-10T00:08:46.071Z,9.13
2023-04-10T00:11:18.372Z,9.11
2023-04-10T00:13:51.069Z,9.16
2023-04-10T00:16:24.047Z,9.14
2023-04-10T00:18:56.190Z,9.11
2023-04-10T00:21:29.637Z,9.09
2023-04-10T00:24:02.344Z,9.08
2023-04-10T00:26:34.701Z,9.05
2023-04-10T00:29:08.465Z,9.04
2023-04-10T00:31:40.816Z,9.01
2023-04-10T00:34:14.324Z,8.97
2023-04-10T00:36:48.255Z,8.94
2023-04-10T00:39:20.669Z,8.89
2023-04-10T00:41:52.978Z,8.86
2023-04-10T00:44:25.278Z,8.87
2023-04-10T00:46:57.550Z,8.86
2023-04-10T00:49:30.083Z,8.84
2023-04-10T00:52:02.600Z,8.85
2023-04-10T00:54:36.344Z,8.85
2023-04-10T00:57:08.758Z,8.83
2023-04-10T00:59:41.192Z,8.79
2023-04-10T01:02:13.676Z,8.76
2023-04-10T01:04:46.059Z,8.71
2023-04-10T01:07:39.836Z,8.67
2023-04-10T01:10:19.722Z,8.62
2023-04-10T01:13:05.946Z,8.57
2023-04-10T01:15:47.708Z,8.53
2023-04-10T01:18:25.653Z,8.52
2023-04-10T01:20:58.979Z,8.54
2023-04-10T01:23:55.018Z,8.53
2023-04-10T01:26:40.876Z,8.54
2023-04-10T01:29:19.706Z,8.53
2023-04-10T01:31:59.440Z,8.52
2023-04-10T01:34:38.274Z,8.48
2023-04-10T01:37:13.991Z,8.47
2023-04-10T01:39:49.358Z,8.46
2023-04-10T01:42:24.493Z,8.45
2023-04-10T01:44:58.846Z,8.41
2023-04-10T01:47:31.237Z,8.38
2023-04-10T01:50:04.745Z,8.35
2023-04-10T01:52:37.347Z,8.39
2023-04-10T01:55:30.822Z,8.39
2023-04-10T01:58:08.414Z,8.38
2023-04-10T02:00:44.664Z,8.38
2023-04-10T02:03:17.139Z,8.36
2023-04-10T02:06:03.603Z,8.32
2023-04-10T02:08:39.924Z,8.26
2023-04-10T02:11:19.038Z,8.22
2023-04-10T02:13:54.643Z,8.19
2023-04-10T02:16:27.785Z,8.17
2023-04-10T02:19:02.376Z,8.14
2023-04-10T02:21:36.762Z,8.13
2023-04-10T02:24:09.312Z,8.19
2023-04-10T02:26:52.103Z,8.19
2023-04-10T02:29:24.151Z,8.19
2023-04-10T02:31:56.297Z,8.20
2023-04-10T02:34:28.493Z,8.18
2023-04-10T02:37:00.547Z,8.13
2023-04-10T02:39:37.232Z,8.09
2023-04-10T02:42:09.820Z,8.05
2023-04-10T02:44:42.335Z,8.02
2023-04-10T02:47:14.729Z,7.99
2023-04-10T02:49:49.438Z,7.95
2023-04-10T02:52:22.077Z,7.94
2023-04-10T02:54:54.281Z,7.98
2023-04-10T02:57:27.316Z,7.98
2023-04-10T02:59:59.500Z,7.95
2023-04-10T03:02:32.968Z,7.95
2023-04-10T03:05:12.614Z,7.93
2023-04-10T03:07:43.214Z,7.91
2023-04-10T03:10:15.655Z,7.88
2023-04-10T03:12:48.924Z,7.85
2023-04-10T03:15:21.359Z,7.83
2023-04-10T03:17:53.565Z,7.78
2023-04-10T03:20:25.781Z,7.75
2023-04-10T03:22:57.905Z,7.74
2023-04-10T03:25:31.843Z,7.81
2023-04-10T03:28:04.588Z,7.80
2023-04-10T03:30:37.253Z,7.77
2023-04-10T03:33:09.752Z,7.74
2023-04-10T03:35:42.268Z,7.69
2023-04-10T03:38:14.612Z,7.65
2023-04-10T03:40:46.953Z,7.62
2023-04-10T03:43:19.818Z,7.59
2023-04-10T03:45:52.564Z,7.57
2023-04-10T03:48:28.384Z,7.55
2023-04-10T03:51:01.087Z,7.59
2023-04-10T03:53:36.263Z,7.60
2023-04-10T03:56:11.992Z,7.60
2023-04-10T03:58:44.438Z,7.57
2023-04-10T04:01:17.454Z,7.53
2023-04-10T04:04:03.248Z,7.46
2023-04-10T04:06:54.208Z,7.38
2023-04-10T04:09:56.483Z,7.33
2023-04-10T04:12:43.601Z,7.30
2023-04-10T04:15:29.550Z,7.27
2023-04-10T04:18:13.341Z,7.26
2023-04-10T04:20:48.543Z,7.30
2023-04-10T04:23:39.482Z,7.32
2023-04-10T04:26:15.729Z,7.34
2023-04-10T04:29:06.985Z,7.34
2023-04-10T04:31:57.733Z,7.35
2023-04-10T04:34:56.148Z,7.35
2023-04-10T04:37:46.993Z,7.33
2023-04-10T04:40:28.059Z,7.34
2023-04-10T04:43:09.589Z,7.35
2023-04-10T04:45:59.845Z,7.35
2023-04-10T04:48:58.087Z,7.34
2023-04-10T04:51:38.319Z,7.37
2023-04-10T04:54:15.539Z,7.45
2023-04-10T04:57:04.710Z,7.47
2023-04-10T04:59:55.528Z,7.48
2023-04-10T05:02:59.814Z,7.51
2023-04-10T05:05:42.289Z,7.54
2023-04-10T05:08:31.937Z,7.53
2023-04-10T05:11:14.635Z,7.52
2023-04-10T05:14:05.628Z,7.52
2023-04-10T05:16:44.108Z,7.53
2023-04-10T05:19:42.672Z,7.56
2023-04-10T05:22:54.111Z,7.60
2023-04-10T05:26:06.186Z,7.61
2023-04-10T05:28:57.262Z,7.62
2023-04-10T05:31:59.233Z,7.74
2023-04-10T05:35:04.115Z,7.83
2023-04-10T05:37:50.438Z,7.90
2023-04-10T05:40:48.683Z,7.98
2023-04-10T05:43:41.683Z,8.04
2023-04-10T05:46:32.534Z,8.14
2023-04-10T05:49:19.433Z,8.23
2023-04-10T05:52:02.168Z,8.30
2023-04-10T05:54:43.408Z,8.37
2023-04-10T05:57:36.625Z,8.46
2023-04-10T06:00:23.720Z,8.52
2023-04-10T06:03:14.897Z,8.62
2023-04-10T06:05:54.474Z,8.77
2023-04-10T06:08:26.760Z,8.86
2023-04-10T06:10:59.006Z,8.94
2023-04-10T06:13:32.507Z,9.02
2023-04-10T06:16:05.638Z,9.08
2023-04-10T06:18:38.497Z,9.13
2023-04-10T06:21:12.496Z,9.18
2023-04-10T06:23:45.052Z,9.25
2023-04-10T06:26:17.175Z,9.31
2023-04-10T06:28:49.284Z,9.39
2023-04-10T06:31:23.199Z,9.46
2023-04-10T06:33:55.859Z,9.52
2023-04-10T06:36:28.827Z,9.59
2023-04-10T06:39:08.426Z,9.68
2023-04-10T06:41:40.634Z,9.75
2023-04-10T06:44:21.263Z,9.86
2023-04-10T06:46:53.799Z,10.03
2023-04-10T06:49:26.592Z,10.15
2023-04-10T06:51:58.794Z,10.27
2023-04-10T06:54:31.441Z,10.36
2023-04-10T06:57:04.025Z,10.45
2023-04-10T06:59:36.181Z,10.56
2023-04-10T07:02:09.089Z,10.68
2023-04-10T07:04:41.262Z,10.79
2023-04-10T07:07:14.150Z,10.93
2023-04-10T07:09:46.477Z,11.05
2023-04-10T07:12:18.788Z,11.14
2023-04-10T07:14:51.053Z,11.25
2023-04-10T07:17:23.277Z,11.35
2023-04-10T07:19:55.728Z,11.46
2023-04-10T07:22:28.067Z,11.55
2023-04-10T07:25:00.224Z,11.64
2023-04-10T07:27:32.338Z,11.74
2023-04-10T07:30:04.520Z,11.83
2023-04-10T07:32:39.958Z,11.94
2023-04-10T07:35:13.023Z,12.05
2023-04-10T07:37:45.420Z,12.16
2023-04-10T07:40:17.842Z,12.27
2023-04-10T07:42:53.805Z,12.39
2023-04-10T07:45:27.916Z,12.52
2023-04-10T07:48:00.136Z,12.65
2023-04-10T07:50:32.416Z,12.76
2023-04-10T07:53:08.002Z,12.86
2023-04-10T07:55:44.042Z,12.97
2023-04-10T07:58:16.509Z,13.06
2023-04-10T08:00:48.651Z,13.16
2023-04-10T08:03:20.951Z,13.25
2023-04-10T08:05:53.220Z,13.35
2023-04-10T08:08:25.455Z,13.45
2023-04-10T08:10:57.594Z,13.57
2023-04-10T08:13:29.955Z,13.68
2023-04-10T08:16:02.139Z,13.77
2023-04-10T08:18:34.292Z,13.89
2023-04-10T08:21:06.888Z,14.00
2023-04-10T08:23:39.081Z,14.09
2023-04-10T08:26:11.322Z,14.20
2023-04-10T08:28:47.302Z,14.28
2023-04-10T08:31:19.963Z,14.38
2023-04-10T08:33:52.998Z,14.49
2023-04-10T08:36:25.450Z,14.62
2023-04-10T08:38:57.702Z,14.72
2023-04-10T08:41:29.880Z,14.82
2023-04-10T08:44:02.001Z,14.93
2023-04-10T08:46:37.372Z,15.05
2023-04-10T08:49:11.779Z,15.16
2023-04-10T08:51:49.167Z,15.25
2023-04-10T08:54:27.125Z,15.34
2023-04-10T08:57:01.529Z,15.46
2023-04-10T08:59:34.189Z,15.55
2023-04-10T09:02:07.513Z,15.65
2023-04-10T09:04:39.985Z,15.72
2023-04-10T09:07:12.195Z,15.80
2023-04-10T09:09:44.394Z,15.86
2023-04-10T09:12:17.788Z,15.93
2023-04-10T09:14:53.483Z,16.01
2023-04-10T09:17:26.538Z,16.09
2023-04-10T09:19:59.018Z,16.19
2023-04-10T09:22:35.204Z,16.28
2023-04-10T09:25:28.557Z,16.37
2023-04-10T09:28:05.519Z,16.46
2023-04-10T09:30:40.169Z,16.55
2023-04-10T09:33:28.069Z,16.63
2023-04-10T09:36:01.204Z,16.74
2023-04-10T09:38:33.413Z,16.84
2023-04-10T09:41:13.184Z,16.93
2023-04-10T09:43:46.387Z,17.04
2023-04-10T09:46:29.356Z,17.12
2023-04-10T09:49:05.070Z,17.22
2023-04-10T09:51:39.412Z,17.28
2023-04-10T09:54:11.543Z,17.33
2023-04-10T09:56:46.548Z,17.42
2023-04-10T09:59:19.570Z,17.53
2023-04-10T10:01:51.832Z,17.59
2023-04-10T10:04:24.540Z,17.66
2023-04-10T10:06:56.725Z,17.71
2023-04-10T10:09:29.461Z,17.78
2023-04-10T10:12:02.298Z,17.86
2023-04-10T10:14:39.388Z,17.93
2023-04-10T10:17:15.758Z,18.00
2023-04-10T10:19:54.936Z,18.07
2023-04-10T10:22:30.527Z,18.14
2023-04-10T10:25:03.816Z,18.22
2023-04-10T10:27:39.690Z,18.28
2023-04-10T10:30:28.296Z,18.37
2023-04-10T10:33:03.745Z,18.51
2023-04-10T10:35:37.604Z,18.54
2023-04-10T10:38:11.147Z,18.52
2023-04-10T10:40:50.567Z,18.56
2023-04-10T10:43:39.140Z,18.64
2023-04-10T10:46:16.153Z,18.64
2023-04-10T10:48:59.440Z,18.67
2023-04-10T10:51:45.631Z,18.75
2023-04-10T10:54:42.472Z,18.73
2023-04-10T10:57:48.333Z,18.54
2023-04-10T11:00:21.644Z,18.42
2023-04-10T11:03:32.303Z,18.32
2023-04-10T11:06:07.324Z,18.11
2023-04-10T11:08:47.670Z,17.90
2023-04-10T11:11:21.915Z,17.69
2023-04-10T11:14:18.205Z,17.53
2023-04-10T11:16:50.733Z,17.34
2023-04-10T11:19:25.566Z,17.22
2023-04-10T11:22:07.560Z,17.07
2023-04-10T11:25:01.988Z,16.92
2023-04-10T11:27:42.495Z,16.77
2023-04-10T11:30:37.650Z,16.66
2023-04-10T11:33:09.747Z,16.65
2023-04-10T11:35:42.462Z,16.77
2023-04-10T11:38:19.051Z,16.94
2023-04-10T11:40:58.916Z,17.17
2023-04-10T11:43:31.366Z,17.43
2023-04-10T11:46:05.838Z,17.69
2023-04-10T11:48:39.345Z,17.96
2023-04-10T11:51:13.554Z,18.19
2023-04-10T11:53:46.392Z,18.39
2023-04-10T11:56:23.028Z,18.57
2023-04-10T11:58:55.591Z,18.60
2023-04-10T12:01:28.040Z,18.50
2023-04-10T12:04:01.121Z,18.34
2023-04-10T12:06:33.414Z,18.15
2023-04-10T12:09:17.238Z,17.95
2023-04-10T12:11:59.519Z,17.73
2023-04-10T12:14:35.981Z,17.52
2023-04-10T12:17:09.643Z,17.32
2023-04-10T12:19:42.706Z,17.16
2023-04-10T12:22:15.935Z,17.02
2023-04-10T12:24:49.087Z,16.89
2023-04-10T12:27:22.684Z,16.76
2023-04-10T12:29:56.358Z,16.63
2023-04-10T12:32:28.678Z,16.53
2023-04-10T12:35:02.409Z,16.42
2023-04-10T12:37:52.364Z,16.31
2023-04-10T12:40:24.640Z,16.19
2023-04-10T12:42:56.874Z,16.10
2023-04-10T12:45:45.451Z,16.01
2023-04-10T12:48:25.582Z,15.93
2023-04-10T12:50:57.773Z,15.84
2023-04-10T12:53:30.570Z,15.76
2023-04-10T12:56:06.621Z,15.70
2023-04-10T12:58:39.208Z,15.64
2023-04-10T13:01:14.313Z,15.58
2023-04-10T13:03:48.813Z,15.53
2023-04-10T13:06:19.585Z,15.49
2023-04-10T13:08:53.086Z,15.45
2023-04-10T13:11:25.492Z,15.42
2023-04-10T13:13:57.624Z,15.38
2023-04-10T13:16:29.768Z,15.35
2023-04-10T13:19:02.042Z,15.32
2023-04-10T13:21:34.110Z,15.29
2023-04-10T13:24:06.408Z,15.27
2023-04-10T13:26:38.495Z,15.25
2023-04-10T13:29:10.774Z,15.23
2023-04-10T13:31:43.011Z,15.23
2023-04-10T13:34:15.095Z,15.22
2023-04-10T13:36:47.216Z,15.21
2023-04-10T13:39:19.792Z,15.21
2023-04-10T13:41:51.930Z,15.21
2023-04-10T13:44:24.161Z,15.21
2023-04-10T13:46:58.157Z,15.21
2023-04-10T13:49:31.400Z,15.21
2023-04-10T13:52:03.454Z,15.21
2023-04-10T13:54:35.595Z,15.20
2023-04-10T13:57:07.726Z,15.21
2023-04-10T13:59:39.815Z,15.21
2023-04-10T14:02:12.110Z,15.22
2023-04-10T14:04:46.246Z,15.22
2023-04-10T14:07:18.297Z,15.23
2023-04-10T14:09:50.424Z,15.23
2023-04-10T14:12:23.280Z,15.24
2023-04-10T14:14:56.935Z,15.24
2023-04-10T14:17:29.276Z,15.24
2023-04-10T14:20:01.871Z,15.26
2023-04-10T14:22:33.937Z,15.27
2023-04-10T14:25:12.922Z,15.26
2023-04-10T14:27:46.637Z,15.26
2023-04-10T14:30:18.859Z,15.26
2023-04-10T14:32:51.195Z,15.26
2023-04-10T14:35:23.396Z,15.26
2023-04-10T14:37:55.701Z,15.27
2023-04-10T14:40:28.057Z,15.28
2023-04-10T14:43:00.152Z,15.28
2023-04-10T14:45:32.788Z,15.28
2023-04-10T14:48:05.077Z,15.28
2023-04-10T14:50:37.334Z,15.27
2023-04-10T14:53:10.667Z,15.26
2023-04-10T14:55:42.948Z,15.25
2023-04-10T14:58:15.061Z,15.25
2023-04-10T15:00:47.171Z,15.25
2023-04-10T15:03:19.435Z,15.24
2023-04-10T15:05:59.467Z,15.23
2023-04-10T15:08:31.604Z,15.20
2023-04-10T15:11:05.287Z,15.18
2023-04-10T15:13:37.923Z,15.14
2023-04-10T15:16:12.074Z,15.11
2023-04-10T15:18:46.161Z,15.08
2023-04-10T15:21:18.656Z,15.04
2023-04-10T15:23:50.914Z,15.02
2023-04-10T15:26:22.963Z,15.00
2023-04-10T15:28:55.143Z,14.96
2023-04-10T15:31:27.400Z,14.93
2023-04-10T15:33:59.532Z,14.90
2023-04-10T15:36:32.173Z,14.86
2023-04-10T15:39:04.842Z,14.83
2023-04-10T15:41:37.215Z,14.82
2023-04-10T15:44:09.475Z,14.81
2023-04-10T15:46:41.550Z,14.80
2023-04-10T15:49:20.399Z,14.80
2023-04-10T15:51:58.483Z,14.80
2023-04-10T15:54:30.716Z,14.82
2023-04-10T15:57:02.972Z,14.83
2023-04-10T15:59:36.088Z,14.84
2023-04-10T16:02:08.368Z,14.83
2023-04-10T16:04:40.749Z,14.82
2023-04-10T16:07:12.930Z,14.80
2023-04-10T16:09:45.141Z,14.79
2023-04-10T16:12:17.313Z,14.77
2023-04-10T16:14:49.381Z,14.74
2023-04-10T16:17:21.586Z,14.71
2023-04-10T16:19:53.746Z,14.67
2023-04-10T16:22:26.488Z,14.63
2023-04-10T16:27:39.008Z,14.53
2023-04-10T16:30:13.803Z,14.47
2023-04-10T16:32:46.278Z,14.41
2023-04-10T16:35:19.275Z,14.35
2023-04-10T16:37:51.646Z,14.29
2023-04-10T16:40:27.723Z,14.22
2023-04-10T16:43:01.156Z,14.17
2023-04-10T16:45:33.317Z,14.10
2023-04-10T16:48:05.579Z,14.04
2023-04-10T16:50:38.724Z,13.99
2023-04-10T16:53:10.806Z,13.93
2023-04-10T16:55:42.953Z,13.88
2023-04-10T16:58:15.057Z,13.84
2023-04-10T17:00:47.336Z,13.78
2023-04-10T17:03:19.513Z,13.74
2023-04-10T17:05:51.657Z,13.69
2023-04-10T17:08:23.761Z,13.64
2023-04-10T17:10:55.865Z,13.59
2023-04-10T17:13:28.025Z,13.54
2023-04-10T17:16:00.359Z,13.55
2023-04-10T17:18:32.594Z,13.54
2023-04-10T17:21:04.882Z,13.51
2023-04-10T17:23:37.407Z,13.49
2023-04-10T17:26:13.508Z,13.43
2023-04-10T17:28:46.694Z,13.39
2023-04-10T17:31:19.975Z,13.34
2023-04-10T17:33:52.118Z,13.31
2023-04-10T17:36:24.435Z,13.25
2023-04-10T17:38:56.833Z,13.19
2023-04-10T17:41:29.690Z,13.13
2023-04-10T17:44:03.311Z,13.08
2023-04-10T17:46:35.498Z,13.03
2023-04-10T17:49:08.102Z,12.98
2023-04-10T17:51:41.931Z,12.96
2023-04-10T17:54:14.555Z,12.96
2023-04-10T17:56:47.248Z,12.93
2023-04-10T17:59:19.359Z,12.91
2023-04-10T18:01:51.640Z,12.88
2023-04-10T18:04:24.146Z,12.84
2023-04-10T18:06:56.371Z,12.79
2023-04-10T18:09:28.554Z,12.75
2023-04-10T18:12:01.520Z,12.72
2023-04-10T18:14:33.753Z,12.69
2023-04-10T18:17:06.229Z,12.65
2023-04-10T18:19:39.366Z,12.58
2023-04-10T18:22:11.950Z,12.53
2023-04-10T18:24:46.896Z,12.48
2023-04-10T18:27:19.044Z,12.45
2023-04-10T18:29:51.185Z,12.46
2023-04-10T18:32:23.264Z,12.44
2023-04-10T18:34:55.643Z,12.43
2023-04-10T18:37:27.905Z,12.41
2023-04-10T18:40:06.422Z,12.33
2023-04-10T18:42:46.105Z,12.28
2023-04-10T18:45:19.316Z,12.22
2023-04-10T18:47:51.481Z,12.19
2023-04-10T18:50:24.066Z,12.15
2023-04-10T18:52:56.246Z,12.10
2023-04-10T18:55:28.552Z,12.05
2023-04-10T18:58:00.850Z,12.00
2023-04-10T19:00:34.345Z,11.98
2023-04-10T19:03:06.768Z,12.03
2023-04-10T19:05:39.239Z,12.02
2023-04-10T19:08:14.296Z,11.99
2023-04-10T19:10:46.460Z,11.98
2023-04-10T19:13:18.629Z,11.95
2023-04-10T19:15:51.340Z,11.92
2023-04-10T19:18:23.440Z,11.88
2023-04-10T19:20:55.609Z,11.85
2023-04-10T19:23:27.692Z,11.81
2023-04-10T19:26:00.413Z,11.76
2023-04-10T19:28:33.381Z,11.70
2023-04-10T19:31:06.160Z,11.67
2023-04-10T19:33:38.364Z,11.70
2023-04-10T19:36:11.459Z,11.70
2023-04-10T19:38:45.053Z,11.69
2023-04-10T19:41:18.051Z,11.67
2023-04-10T19:43:52.746Z,11.62
2023-04-10T19:46:23.639Z,11.60
2023-04-10T19:48:55.927Z,11.55
2023-04-10T19:51:28.162Z,11.50
2023-04-10T19:54:00.442Z,11.46
2023-04-10T19:56:32.961Z,11.42
2023-04-10T19:59:05.151Z,11.37
